createdAt,value
2022-11-16T00:00:06.566Z,99977.12
2022-11-16T00:03:33.134Z,99979.98
2022-11-16T00:06:41.717Z,99979.24
2022-11-16T00:09:48.285Z,99980.86
2022-11-16T00:12:54.300Z,99982.62
2022-11-16T00:16:00.638Z,99980.29
2022-11-16T00:19:07.507Z,99979.58
2022-11-16T00:22:13.556Z,99975.23
2022-11-16T00:25:19.525Z,99975.52
2022-11-16T00:28:25.457Z,99978.89
2022-11-16T00:31:33.570Z,99979.51
2022-11-16T00:34:40.694Z,99979.67
2022-11-16T00:37:46.680Z,99978.06
2022-11-16T00:40:53.186Z,99977.03
2022-11-16T00:43:59.118Z,99978.69
2022-11-16T00:47:05.200Z,99979.11
2022-11-16T00:50:11.422Z,99979.94
2022-11-16T00:53:18.180Z,99977.61
2022-11-16T00:56:24.279Z,99981.94
2022-11-16T00:59:30.426Z,99983.52
2022-11-16T01:02:38.165Z,99978.70
2022-11-16T01:05:44.127Z,99978.17
2022-11-16T01:08:50.105Z,99978.38
2022-11-16T01:12:10.910Z,99980.18
2022-11-16T01:15:17.367Z,99980.39
2022-11-16T01:18:24.412Z,99973.45
2022-11-16T01:21:30.535Z,99968.80
2022-11-16T01:24:36.642Z,99971.84
2022-11-16T01:27:42.994Z,99972.70
2022-11-16T01:30:53.978Z,99965.06
2022-11-16T01:34:00.116Z,99965.64
2022-11-16T01:37:07.983Z,99968.80
2022-11-16T01:40:17.613Z,99964.84
2022-11-16T01:43:25.187Z,99965.05
2022-11-16T01:46:37.217Z,99961.65
2022-11-16T01:49:45.949Z,99959.66
2022-11-16T01:52:56.620Z,99954.69
2022-11-16T01:56:04.205Z,99956.42
2022-11-16T01:59:22.394Z,99950.69
2022-11-16T02:02:28.901Z,99950.48
2022-11-16T02:05:40.900Z,99948.60
2022-11-16T02:09:13.931Z,99947.74
2022-11-16T02:12:33.358Z,99950.73
2022-11-16T02:15:41.482Z,99948.19
2022-11-16T02:19:00.294Z,99945.81
2022-11-16T02:22:09.608Z,99942.29
2022-11-16T02:25:18.209Z,99944.03
2022-11-16T02:28:29.746Z,99948.55
2022-11-16T02:31:37.273Z,99947.13
2022-11-16T02:34:43.897Z,99944.49
2022-11-16T02:37:55.368Z,99937.60
2022-11-16T02:41:03.615Z,99937.89
2022-11-16T02:44:12.302Z,99939.59
2022-11-16T02:47:21.008Z,99935.66
2022-11-16T02:50:28.100Z,99939.52
2022-11-16T02:53:37.323Z,99936.71
2022-11-16T02:56:45.003Z,99935.30
2022-11-16T02:59:53.172Z,99936.30
2022-11-16T03:03:13.513Z,99932.95
2022-11-16T03:06:21.859Z,99929.34
2022-11-16T03:09:31.135Z,99932.20
2022-11-16T03:12:37.037Z,99927.59
2022-11-16T03:15:46.819Z,99927.21
2022-11-16T03:18:56.776Z,99926.77
2022-11-16T03:22:05.530Z,99926.64
2022-11-16T03:25:13.609Z,99921.61
2022-11-16T03:28:22.664Z,99925.32
2022-11-16T03:31:30.755Z,99922.61
2022-11-16T03:34:38.873Z,99918.89
2022-11-16T03:37:46.032Z,99917.20
2022-11-16T03:40:52.467Z,99913.63
2022-11-16T03:43:59.394Z,99906.95
2022-11-16T03:47:05.497Z,99907.58
2022-11-16T03:50:11.762Z,99904.00
2022-11-16T03:53:17.840Z,99899.16
2022-11-16T03:56:25.442Z,99896.71
2022-11-16T03:59:31.067Z,99894.64
2022-11-16T04:02:37.756Z,99890.95
2022-11-16T04:06:00.854Z,99889.36
2022-11-16T04:09:23.513Z,99889.77
2022-11-16T04:12:47.143Z,99888.79
2022-11-16T04:16:10.226Z,99880.48
2022-11-16T04:19:32.957Z,99877.05
2022-11-16T04:22:59.693Z,99877.53
2022-11-16T04:26:07.397Z,99879.61
2022-11-16T04:29:14.464Z,99879.52
2022-11-16T04:32:37.537Z,99873.21
2022-11-16T04:36:10.807Z,99867.20
2022-11-16T04:39:16.264Z,99861.67
2022-11-16T04:42:22.808Z,99860.92
2022-11-16T04:45:47.489Z,99864.21
2022-11-16T04:48:54.005Z,99859.23
2022-11-16T04:51:59.612Z,99852.96
2022-11-16T04:55:06.980Z,99850.09
2022-11-16T04:58:12.551Z,99846.60
2022-11-16T05:01:18.103Z,99846.55
2022-11-16T05:04:23.476Z,99843.45
2022-11-16T05:07:29.333Z,99843.11
2022-11-16T05:10:40.991Z,99841.77
2022-11-16T05:13:47.680Z,99837.42
2022-11-16T05:16:52.921Z,99825.05
2022-11-16T05:20:16.322Z,99819.69
2022-11-16T05:23:45.191Z,99821.78
2022-11-16T05:26:52.096Z,99817.67
2022-11-16T05:29:57.957Z,99819.90
2022-11-16T05:33:03.471Z,99822.11
2022-11-16T05:36:11.212Z,99824.27
2022-11-16T05:39:17.478Z,99824.60
2022-11-16T05:42:22.983Z,99825.10
2022-11-16T05:45:28.602Z,99823.43
2022-11-16T05:48:34.852Z,99827.20
2022-11-16T05:51:41.975Z,99823.44
2022-11-16T05:54:47.544Z,99823.09
2022-11-16T05:57:52.863Z,99820.95
2022-11-16T06:00:58.535Z,99827.55
2022-11-16T06:04:04.360Z,99824.64
2022-11-16T06:07:10.346Z,99825.39
2022-11-16T06:10:16.082Z,99831.98
2022-11-16T06:13:22.774Z,99830.33
2022-11-16T06:16:29.485Z,99830.91
2022-11-16T06:19:35.571Z,99828.63
2022-11-16T06:22:41.214Z,99824.27
2022-11-16T06:25:46.824Z,99822.60
2022-11-16T06:28:54.944Z,99822.94
2022-11-16T06:32:00.797Z,99818.36
2022-11-16T06:35:07.072Z,99818.20
2022-11-16T06:38:18.459Z,99820.61
2022-11-16T06:41:26.110Z,99825.22
2022-11-16T06:44:31.637Z,99825.64
2022-11-16T06:47:39.703Z,99821.54
2022-11-16T06:50:45.705Z,99820.10
2022-11-16T06:53:51.696Z,99823.76
2022-11-16T06:56:57.681Z,99820.38
2022-11-16T07:00:03.260Z,99821.52
2022-11-16T07:03:09.260Z,99829.40
2022-11-16T07:06:15.668Z,99825.30
2022-11-16T07:09:23.240Z,99825.63
2022-11-16T07:12:29.198Z,99825.20
2022-11-16T07:15:35.654Z,99821.76
2022-11-16T07:18:42.121Z,99825.07
2022-11-16T07:21:47.712Z,99822.23
2022-11-16T07:24:55.529Z,99829.92
2022-11-16T07:28:01.619Z,99826.21
2022-11-16T07:31:09.204Z,99830.58
2022-11-16T07:34:15.076Z,99831.73
2022-11-16T07:37:27.420Z,99837.09
2022-11-16T07:40:33.066Z,99838.90
2022-11-16T07:43:40.006Z,99839.42
2022-11-16T07:46:54.341Z,99839.88
2022-11-16T07:49:59.633Z,99840.20
2022-11-16T07:53:06.688Z,99839.81
2022-11-16T07:56:12.717Z,99842.88
2022-11-16T07:59:18.590Z,99839.50
2022-11-16T08:02:24.594Z,99842.40
2022-11-16T08:05:31.008Z,99843.63
2022-11-16T08:08:36.763Z,99839.17
2022-11-16T08:11:42.708Z,99836.47
2022-11-16T08:14:48.343Z,99837.52
2022-11-16T08:17:53.885Z,99835.69
2022-11-16T08:21:01.849Z,99843.52
2022-11-16T08:24:08.899Z,99847.39
2022-11-16T08:27:17.605Z,99846.99
2022-11-16T08:30:28.281Z,99851.29
2022-11-16T08:33:33.782Z,99851.67
2022-11-16T08:36:41.410Z,99847.88
2022-11-16T08:39:47.076Z,99843.95
2022-11-16T08:42:57.128Z,99838.27
2022-11-16T08:46:05.363Z,99834.50
2022-11-16T08:49:11.508Z,99837.39
2022-11-16T08:52:16.995Z,99839.55
2022-11-16T08:55:22.559Z,99843.91
2022-11-16T08:58:27.893Z,99837.86
2022-11-16T09:01:33.681Z,99839.75
2022-11-16T09:04:39.205Z,99839.85
2022-11-16T09:07:45.830Z,99841.31
2022-11-16T09:10:51.200Z,99837.17
2022-11-16T09:13:57.522Z,99841.26
2022-11-16T09:17:02.916Z,99844.44
2022-11-16T09:20:09.732Z,99848.22
2022-11-16T09:23:15.057Z,99845.35
2022-11-16T09:26:23.308Z,99848.91
2022-11-16T09:29:28.947Z,99851.63
2022-11-16T09:32:34.388Z,99848.25
2022-11-16T09:35:43.560Z,99843.55
2022-11-16T09:42:29.888Z,99839.80
2022-11-16T09:45:40.322Z,99840.36
2022-11-16T09:48:45.859Z,99838.77
2022-11-16T09:51:52.556Z,99838.64
2022-11-16T09:55:00.539Z,99837.27
2022-11-16T09:58:09.921Z,99833.28
2022-11-16T10:01:22.513Z,99838.47
2022-11-16T10:04:37.206Z,99832.60
2022-11-16T10:07:44.382Z,99829.80
2022-11-16T10:10:55.969Z,99824.49
2022-11-16T10:14:07.238Z,99826.03
2022-11-16T10:17:18.848Z,99824.53
2022-11-16T10:20:43.780Z,99816.80
2022-11-16T10:23:56.722Z,99817.89
2022-11-16T10:27:09.298Z,99819.63
2022-11-16T10:30:17.146Z,99817.58
2022-11-16T10:33:24.028Z,99817.44
2022-11-16T10:36:31.521Z,99815.09
2022-11-16T10:39:41.085Z,99813.70
2022-11-16T10:42:48.159Z,99813.30
2022-11-16T10:45:58.294Z,99816.36
2022-11-16T10:49:09.567Z,99814.73
2022-11-16T10:52:15.046Z,99815.65
2022-11-16T10:55:21.938Z,99809.59
2022-11-16T10:58:27.270Z,99805.50
2022-11-16T11:01:37.384Z,99802.30
2022-11-16T11:05:01.351Z,99807.90
2022-11-16T11:08:08.600Z,99801.23
2022-11-16T11:11:38.499Z,99799.17
2022-11-16T11:15:01.033Z,99799.71
2022-11-16T11:18:13.283Z,99801.34
2022-11-16T11:21:21.007Z,99800.79
2022-11-16T11:27:53.775Z,99805.55
2022-11-16T11:31:01.614Z,99801.02
2022-11-16T11:34:14.969Z,99799.75
2022-11-16T11:37:22.620Z,99804.96
2022-11-16T11:40:28.756Z,99806.45
2022-11-16T11:43:35.522Z,99803.10
2022-11-16T11:47:18.610Z,99799.94
2022-11-16T11:50:12.358Z,99793.02
2022-11-16T11:53:23.381Z,99794.30
2022-11-16T11:56:30.715Z,99799.48
2022-11-16T11:59:36.226Z,99800.45
2022-11-16T12:02:49.636Z,99799.05
2022-11-16T12:06:06.069Z,99791.30
2022-11-16T12:09:22.402Z,99794.66
2022-11-16T12:12:38.339Z,99794.00
2022-11-16T12:15:52.860Z,99789.73
2022-11-16T12:19:17.999Z,99781.73
2022-11-16T12:22:33.919Z,99779.57
2022-11-16T12:25:43.963Z,99772.21
2022-11-16T12:28:56.934Z,99766.52
2022-11-16T12:32:19.154Z,99770.27
2022-11-16T12:35:31.687Z,99767.70
2022-11-16T12:38:48.615Z,99764.88
2022-11-16T12:42:13.892Z,99766.02
2022-11-16T12:45:33.676Z,99765.23
2022-11-16T12:48:45.819Z,99762.63
2022-11-16T12:51:57.150Z,99762.02
2022-11-16T12:55:25.862Z,99758.99
2022-11-16T12:58:39.493Z,99756.72
2022-11-16T13:01:49.115Z,99755.60
2022-11-16T13:04:58.529Z,99753.09
2022-11-16T13:08:05.995Z,99752.81
2022-11-16T13:11:15.744Z,99756.20
2022-11-16T13:14:25.508Z,99751.00
2022-11-16T13:17:33.450Z,99746.88
2022-11-16T13:20:45.051Z,99746.02
2022-11-16T13:23:54.783Z,99745.53
2022-11-16T13:27:07.714Z,99746.63
2022-11-16T13:30:19.282Z,99745.75
2022-11-16T13:33:29.245Z,99743.80
2022-11-16T13:36:45.083Z,99744.47
2022-11-16T13:40:08.692Z,99746.77
2022-11-16T13:43:18.409Z,99750.98
2022-11-16T13:46:54.081Z,99744.29
2022-11-16T13:49:53.250Z,99740.83
2022-11-16T13:56:29.510Z,99741.33
2022-11-16T13:59:37.235Z,99739.84
2022-11-16T14:02:43.169Z,99741.61
2022-11-16T14:05:49.520Z,99744.20
2022-11-16T14:08:55.647Z,99750.74
2022-11-16T14:12:20.981Z,99748.13
2022-11-16T14:15:28.593Z,99743.65
2022-11-16T14:18:37.297Z,99749.35
2022-11-16T14:21:48.903Z,99746.36
2022-11-16T14:24:58.677Z,99749.04
2022-11-16T14:28:14.567Z,99748.33
2022-11-16T14:31:23.025Z,99751.05
2022-11-16T14:34:31.655Z,99750.06
2022-11-16T14:37:39.911Z,99754.57
2022-11-16T14:40:47.257Z,99757.69
2022-11-16T14:43:55.132Z,99754.80
2022-11-16T14:47:00.701Z,99751.84
2022-11-16T14:50:18.315Z,99753.21
2022-11-16T14:53:27.256Z,99760.33
2022-11-16T14:56:32.872Z,99756.02
2022-11-16T14:59:38.446Z,99755.12
2022-11-16T15:02:51.040Z,99752.21
2022-11-16T15:05:59.836Z,99755.16
2022-11-16T15:09:05.915Z,99752.05
2022-11-16T15:12:32.976Z,99749.40
2022-11-16T15:15:38.761Z,99748.54
2022-11-16T15:18:56.303Z,99748.09
2022-11-16T15:22:02.737Z,99751.98
2022-11-16T15:25:24.899Z,99756.19
2022-11-16T15:28:31.793Z,99756.60
2022-11-16T15:31:38.485Z,99755.20
2022-11-16T15:34:44.336Z,99751.30
2022-11-16T15:37:52.218Z,99750.34
2022-11-16T15:40:58.798Z,99743.45
2022-11-16T15:44:14.655Z,99750.50
2022-11-16T15:47:22.807Z,99747.96
2022-11-16T15:50:29.153Z,99751.64
2022-11-16T15:53:36.875Z,99755.31
2022-11-16T15:56:43.646Z,99753.61
2022-11-16T15:59:50.642Z,99761.00
2022-11-16T16:02:56.620Z,99758.88
2022-11-16T16:06:02.542Z,99759.08
2022-11-16T16:09:08.011Z,99755.00
2022-11-16T16:12:20.175Z,99752.48
2022-11-16T16:15:27.009Z,99754.02
2022-11-16T16:18:41.627Z,99759.08
2022-11-16T16:21:52.464Z,99756.41
2022-11-16T16:24:58.414Z,99754.14
2022-11-16T16:28:04.055Z,99749.37
2022-11-16T16:31:10.099Z,99750.84
2022-11-16T16:34:17.974Z,99752.84
2022-11-16T16:37:23.782Z,99751.59
2022-11-16T16:40:29.436Z,99749.39
2022-11-16T16:43:35.799Z,99748.23
2022-11-16T16:46:41.325Z,99752.55
2022-11-16T16:49:46.873Z,99757.11
2022-11-16T16:52:52.209Z,99759.31
2022-11-16T16:56:00.359Z,99762.91
2022-11-16T16:59:06.026Z,99767.04
2022-11-16T17:02:12.585Z,99767.85
2022-11-16T17:05:18.283Z,99761.33
2022-11-16T17:08:23.797Z,99766.30
2022-11-16T17:11:29.938Z,99770.27
2022-11-16T17:14:35.610Z,99774.33
2022-11-16T17:17:42.949Z,99773.91
2022-11-16T17:20:48.326Z,99778.09
2022-11-16T17:23:53.709Z,99770.90
2022-11-16T17:26:59.181Z,99777.28
2022-11-16T17:30:05.200Z,99770.60
2022-11-16T17:33:10.473Z,99776.64
2022-11-16T17:36:16.376Z,99779.73
2022-11-16T17:39:22.585Z,99780.75
2022-11-16T17:42:28.661Z,99784.23
2022-11-16T17:45:34.084Z,99787.82
2022-11-16T17:48:40.478Z,99788.05
2022-11-16T17:51:46.056Z,99789.64
2022-11-16T17:54:51.377Z,99794.92
2022-11-16T17:57:58.591Z,99793.99
2022-11-16T18:01:04.036Z,99792.45
2022-11-16T18:04:09.436Z,99790.39
2022-11-16T18:07:14.829Z,99784.88
2022-11-16T18:10:20.343Z,99783.90
2022-11-16T18:13:25.882Z,99786.38
2022-11-16T18:16:32.251Z,99788.48
2022-11-16T18:19:37.828Z,99792.30
2022-11-16T18:22:43.345Z,99786.15
2022-11-16T18:25:48.982Z,99785.27
2022-11-16T18:28:54.385Z,99788.91
2022-11-16T18:31:59.803Z,99788.30
2022-11-16T18:35:10.029Z,99794.53
2022-11-16T18:38:15.412Z,99798.51
2022-11-16T18:41:21.895Z,99798.55
2022-11-16T18:44:27.305Z,99807.22
2022-11-16T18:47:32.717Z,99804.57
2022-11-16T18:50:38.272Z,99808.73
2022-11-16T18:53:46.439Z,99806.45
2022-11-16T18:56:51.877Z,99798.53
2022-11-16T18:59:57.321Z,99798.98
2022-11-16T19:03:05.761Z,99802.29
2022-11-16T19:06:15.034Z,99800.20
2022-11-16T19:09:20.645Z,99796.55
2022-11-16T19:12:26.169Z,99793.70
2022-11-16T19:15:31.747Z,99798.30
2022-11-16T19:18:37.885Z,99800.00
2022-11-16T19:21:43.428Z,99803.75
2022-11-16T19:24:48.830Z,99811.09
2022-11-16T19:27:54.119Z,99814.09
2022-11-16T19:30:59.831Z,99812.54
2022-11-16T19:34:06.223Z,99819.30
2022-11-16T19:37:11.840Z,99821.92
2022-11-16T19:40:22.197Z,99814.55
2022-11-16T19:43:30.163Z,99810.98
2022-11-16T19:46:38.194Z,99816.99
2022-11-16T19:49:43.636Z,99818.25
2022-11-16T19:52:49.005Z,99823.98
2022-11-16T19:55:57.426Z,99817.75
2022-11-16T19:59:02.709Z,99814.31
2022-11-16T20:02:10.360Z,99816.45
2022-11-16T20:05:16.381Z,99824.96
2022-11-16T20:08:21.793Z,99820.87
2022-11-16T20:11:27.911Z,99825.27
2022-11-16T20:14:33.389Z,99826.31
2022-11-16T20:17:39.025Z,99825.98
2022-11-16T20:20:44.786Z,99824.77
2022-11-16T20:23:51.743Z,99827.77
2022-11-16T20:26:57.090Z,99832.30
2022-11-16T20:30:08.009Z,99834.23
2022-11-16T20:33:15.540Z,99827.61
2022-11-16T20:36:22.884Z,99823.80
2022-11-16T20:39:28.403Z,99829.52
2022-11-16T20:42:34.068Z,99828.80
2022-11-16T20:45:39.747Z,99826.91
2022-11-16T20:48:45.641Z,99826.86
2022-11-16T20:51:51.761Z,99819.83
2022-11-16T20:55:00.148Z,99815.52
2022-11-16T20:58:05.626Z,99813.42
2022-11-16T21:01:13.243Z,99812.51
2022-11-16T21:04:21.627Z,99815.98
2022-11-16T21:07:27.063Z,99818.89
2022-11-16T21:10:35.417Z,99821.01
2022-11-16T21:13:58.676Z,99823.36
2022-11-16T21:17:04.555Z,99818.27
2022-11-16T21:20:28.363Z,99815.41
2022-11-16T21:23:39.105Z,99811.59
2022-11-16T21:26:44.490Z,99815.06
2022-11-16T21:29:49.652Z,99811.39
2022-11-16T21:32:54.899Z,99804.73
2022-11-16T21:36:03.522Z,99805.88
2022-11-16T21:39:09.088Z,99808.04
2022-11-16T21:42:14.443Z,99809.34
2022-11-16T21:45:19.768Z,99815.71
2022-11-16T21:48:25.174Z,99816.06
2022-11-16T21:51:30.816Z,99812.01
2022-11-16T21:54:48.565Z,99813.13
2022-11-16T21:57:53.850Z,99818.09
2022-11-16T22:00:59.933Z,99824.22
2022-11-16T22:04:22.995Z,99828.16
2022-11-16T22:07:34.492Z,99824.88
2022-11-16T22:10:39.827Z,99829.27
2022-11-16T22:13:45.652Z,99828.65
2022-11-16T22:16:51.686Z,99823.50
2022-11-16T22:19:57.764Z,99832.20
2022-11-16T22:23:03.609Z,99839.47
2022-11-16T22:26:10.640Z,99832.53
2022-11-16T22:29:16.507Z,99828.73
2022-11-16T22:32:22.279Z,99821.45
2022-11-16T22:35:31.036Z,99816.28
2022-11-16T22:38:39.296Z,99814.65
2022-11-16T22:41:45.216Z,99808.09
2022-11-16T22:44:51.187Z,99805.02
2022-11-16T22:47:57.200Z,99812.93
2022-11-16T22:51:13.577Z,99815.38
2022-11-16T22:54:22.199Z,99814.80
2022-11-16T22:57:30.543Z,99820.11
2022-11-16T23:00:41.780Z,99812.90
2022-11-16T23:03:48.718Z,99812.09
2022-11-16T23:06:54.868Z,99806.63
2022-11-16T23:10:00.940Z,99808.50
2022-11-16T23:13:24.383Z,99811.88
2022-11-16T23:16:30.401Z,99809.62
2022-11-16T23:19:53.905Z,99810.59
2022-11-16T23:23:17.482Z,99800.81
2022-11-16T23:26:42.284Z,99797.22
2022-11-16T23:29:48.548Z,99789.19
2022-11-16T23:32:54.473Z,99790.93
2022-11-16T23:36:00.313Z,99796.24
2022-11-16T23:39:06.862Z,99788.02
2022-11-16T23:42:30.266Z,99787.45
2022-11-16T23:45:36.235Z,99780.27
2022-11-16T23:48:42.213Z,99787.36
2022-11-16T23:51:47.986Z,99787.65
2022-11-16T23:54:53.883Z,99787.86
2022-11-16T23:57:59.718Z,99790.65
